Time;durP1;ratioP1;P1;durP2;ratioP2;P2;SDS_P1;SDS_P2;PMS_P1;PMS_P2;Temp;Humidity;BMP_temperature;BMP_pressure;BME280_temperature;BME280_humidity;BME280_pressure;Samples;Min_cycle;Max_cycle;Signal;HPM_P1;HPM_P2
2022/05/10 00:02:16;;;;;;;3.97;2.70;;;13.30;91.40;;;;;;5050250;28;20033;-80
2022/05/10 00:04:47;;;;;;;4.80;2.42;;;13.30;91.50;;;;;;5048276;28;20044;-80
2022/05/10 00:07:12;;;;;;;5.88;2.90;;;13.20;91.70;;;;;;5049957;28;20033;-80
2022/05/10 00:09:37;;;;;;;8.80;2.95;;;13.20;91.80;;;;;;5047624;28;20055;-80
2022/05/10 00:12:03;;;;;;;3.60;2.70;;;13.20;91.80;;;;;;5048382;28;20033;-80
2022/05/10 00:14:29;;;;;;;9.32;3.03;;;13.20;92.00;;;;;;5065656;28;20024;-78
2022/05/10 00:16:55;;;;;;;3.65;2.47;;;13.10;92.10;;;;;;5057676;28;20066;-81
2022/05/10 00:19:26;;;;;;;7.70;3.80;;;13.10;92.20;;;;;;5031407;28;20094;-80
2022/05/10 00:21:53;;;;;;;4.68;2.70;;;13.10;92.40;;;;;;5042975;28;20114;-79
2022/05/10 00:24:18;;;;;;;8.77;3.17;;;13.00;92.50;;;;;;5057509;28;20029;-80
2022/05/10 00:26:44;;;;;;;7.90;3.33;;;13.00;92.60;;;;;;5056117;28;20570;-80
2022/05/10 00:29:09;;;;;;;5.95;2.67;;;13.00;92.70;;;;;;5044113;28;20025;-82
2022/05/10 00:31:35;;;;;;;10.38;3.92;;;13.00;92.80;;;;;;5040965;28;20036;-80
2022/05/10 00:34:02;;;;;;;5.65;2.83;;;13.00;93.00;;;;;;5059141;28;20024;-81
2022/05/10 00:36:28;;;;;;;5.18;2.85;;;12.90;93.10;;;;;;5042332;28;20068;-80
2022/05/10 00:38:53;;;;;;;6.10;3.03;;;12.90;93.10;;;;;;5033435;28;20018;-82
2022/05/10 00:41:31;;;;;;;6.72;2.80;;;12.90;93.20;;;;;;5057437;28;20035;-81
2022/05/10 00:44:24;;;;;;;7.15;2.38;;;12.90;93.40;;;;;;5054009;28;20039;-80
2022/05/10 00:47:21;;;;;;;9.95;4.05;;;12.80;93.40;;;;;;5062083;28;20127;-81
2022/05/10 00:50:04;;;;;;;6.70;3.03;;;12.80;93.60;;;;;;5040827;28;20465;-81
2022/05/10 00:52:34;;;;;;;6.10;3.33;;;12.80;93.60;;;;;;5041677;28;20025;-80
2022/05/10 00:55:11;;;;;;;5.18;3.28;;;12.80;93.70;;;;;;5041109;28;20485;-80
2022/05/10 00:57:42;;;;;;;5.22;3.10;;;12.70;93.80;;;;;;5050493;28;20064;-80
2022/05/10 01:00:15;;;;;;;5.60;2.78;;;12.70;93.90;;;;;;5046048;28;20393;-80
2022/05/10 01:02:46;;;;;;;6.47;3.13;;;12.70;94.00;;;;;;5040977;28;20033;-81
2022/05/10 01:05:23;;;;;;;7.13;3.05;;;12.70;94.10;;;;;;5041499;28;20033;-80
2022/05/10 01:08:03;;;;;;;5.40;3.00;;;12.70;94.20;;;;;;5052185;28;20021;-80
2022/05/10 01:10:40;;;;;;;5.97;2.42;;;12.60;94.20;;;;;;5047017;28;20020;-81
2022/05/10 01:13:10;;;;;;;6.30;2.83;;;12.60;94.30;;;;;;5057954;28;20068;-79
2022/05/10 01:15:39;;;;;;;6.75;2.88;;;12.60;94.40;;;;;;5055093;28;20353;-79
2022/05/10 01:18:05;;;;;;;4.32;3.08;;;12.60;94.40;;;;;;5063899;28;20072;-80
2022/05/10 01:20:37;;;;;;;3.60;2.70;;;12.60;94.60;;;;;;5064200;28;20052;-80
2022/05/10 01:23:28;;;;;;;5.68;2.75;;;12.60;94.40;;;;;;5048775;28;20033;-81
2022/05/10 01:26:04;;;;;;;8.02;3.38;;;12.50;94.50;;;;;;5055200;28;20481;-81
2022/05/10 01:28:57;;;;;;;3.85;2.90;;;12.50;94.50;;;;;;5044929;28;20127;-80
2022/05/10 01:31:35;;;;;;;6.30;3.42;;;12.40;94.60;;;;;;5053483;28;20048;-79
2022/05/10 01:34:08;;;;;;;8.48;2.88;;;12.50;94.70;;;;;;5052333;28;20019;-80
2022/05/10 01:36:43;;;;;;;;;;;12.40;94.70;;;;;;5052007;28;20040;-79
2022/05/10 01:39:24;;;;;;;5.80;2.63;;;12.40;94.70;;;;;;5061755;28;19901;-81
2022/05/10 01:42:03;;;;;;;5.38;3.00;;;12.30;94.80;;;;;;5039509;28;20388;-79
2022/05/10 01:44:47;;;;;;;4.32;2.95;;;12.30;94.90;;;;;;5044462;28;20021;-79
2022/05/10 01:47:34;;;;;;;3.17;2.65;;;12.30;94.90;;;;;;5035180;28;20462;-81
2022/05/10 01:50:07;;;;;;;5.75;3.10;;;12.20;95.00;;;;;;5041214;28;20029;-79
2022/05/10 01:52:43;;;;;;;7.13;3.10;;;12.20;95.00;;;;;;5052983;28;20021;-79
2022/05/10 01:55:28;;;;;;;5.25;3.85;;;12.20;95.10;;;;;;5041042;28;20021;-80
2022/05/10 01:57:58;;;;;;;10.48;3.47;;;12.20;95.30;;;;;;5052579;28;20021;-80
2022/05/10 02:00:27;;;;;;;7.00;2.97;;;12.20;95.30;;;;;;5051657;28;20041;-81
2022/05/10 02:02:57;;;;;;;4.25;3.00;;;12.20;95.50;;;;;;5041990;28;20028;-79
2022/05/10 02:05:31;;;;;;;7.75;3.40;;;12.20;95.70;;;;;;5047499;28;20555;-79
2022/05/10 02:08:04;;;;;;;6.22;3.20;;;12.20;95.60;;;;;;5040924;28;20027;-80
2022/05/10 02:10:42;;;;;;;6.63;2.53;;;12.20;95.60;;;;;;5059082;28;20025;-80
2022/05/10 02:13:13;;;;;;;7.68;3.15;;;12.20;95.60;;;;;;5046510;28;20017;-80
2022/05/10 02:15:49;;;;;;;6.55;3.03;;;12.20;95.50;;;;;;5047172;28;20032;-81
2022/05/10 02:18:24;;;;;;;4.68;2.80;;;12.20;95.50;;;;;;5046339;28;20033;-80
2022/05/10 02:20:57;;;;;;;4.97;2.67;;;12.20;95.50;;;;;;5052195;28;20028;-80
2022/05/10 02:23:28;;;;;;;3.33;2.65;;;12.10;95.50;;;;;;5047521;28;20014;-81
2022/05/10 02:26:01;;;;;;;3.83;2.77;;;12.10;95.60;;;;;;5051562;28;20769;-80
2022/05/10 02:28:43;;;;;;;6.05;3.03;;;12.10;95.60;;;;;;5053315;28;20025;-80
2022/05/10 02:31:26;;;;;;;2.73;2.20;;;12.10;95.70;;;;;;5049702;28;20454;-78
2022/05/10 02:33:54;;;;;;;5.72;3.15;;;12.10;95.70;;;;;;5050678;28;20033;-79
2022/05/10 02:36:20;;;;;;;5.22;3.13;;;12.00;95.70;;;;;;5046478;28;20432;-78
2022/05/10 02:38:46;;;;;;;6.72;3.13;;;12.00;95.70;;;;;;5062082;28;20115;-78
2022/05/10 02:41:19;;;;;;;5.93;3.47;;;12.00;95.70;;;;;;5046832;28;20036;-79
2022/05/10 02:43:59;;;;;;;6.80;3.55;;;12.00;95.80;;;;;;5039127;28;20041;-79
2022/05/10 02:46:25;;;;;;;5.22;3.35;;;12.00;95.90;;;;;;5064357;28;20075;-79
2022/05/10 02:48:52;;;;;;;6.72;3.63;;;11.90;95.90;;;;;;5056781;28;20454;-78
2022/05/10 02:51:18;;;;;;;8.75;3.47;;;11.90;96.00;;;;;;5046398;28;20096;-78
2022/05/10 02:53:44;;;;;;;7.72;3.25;;;11.90;96.00;;;;;;5036754;28;20021;-79
2022/05/10 02:56:12;;;;;;;6.20;3.50;;;11.90;96.10;;;;;;5039862;28;20136;-78
2022/05/10 02:58:58;;;;;;;4.68;3.40;;;11.90;96.20;;;;;;5035846;28;20104;-79
2022/05/10 03:01:33;;;;;;;6.30;4.10;;;11.80;96.10;;;;;;5052861;28;20507;-79
2022/05/10 03:03:59;;;;;;;6.65;3.55;;;11.80;96.20;;;;;;5050436;28;20032;-79
2022/05/10 03:06:28;;;;;;;8.30;2.90;;;11.80;96.30;;;;;;5038671;28;20068;-78
2022/05/10 03:08:54;;;;;;;6.68;3.72;;;11.80;96.30;;;;;;5040407;28;20069;-81
2022/05/10 03:11:20;;;;;;;6.97;3.10;;;11.80;96.40;;;;;;5053354;28;20484;-79
2022/05/10 03:13:47;;;;;;;7.68;3.67;;;11.70;96.40;;;;;;5058011;28;20033;-78
2022/05/10 03:16:14;;;;;;;4.53;3.67;;;11.70;96.50;;;;;;5060266;28;20032;-79
2022/05/10 03:18:40;;;;;;;6.20;3.85;;;11.70;96.50;;;;;;5056529;28;20049;-79
2022/05/10 03:21:06;;;;;;;6.85;3.70;;;11.70;96.60;;;;;;5049309;28;20055;-78
2022/05/10 03:23:31;;;;;;;5.18;3.70;;;11.70;96.60;;;;;;5057298;28;20068;-81
2022/05/10 03:25:57;;;;;;;9.48;4.00;;;11.70;96.70;;;;;;5036133;28;20044;-78
2022/05/10 03:28:24;;;;;;;5.05;3.83;;;11.70;96.80;;;;;;5044684;28;20025;-78
2022/05/10 03:30:50;;;;;;;9.50;4.75;;;11.70;96.80;;;;;;5049283;28;20025;-78
2022/05/10 03:33:16;;;;;;;7.10;3.60;;;11.70;96.80;;;;;;5044542;28;20036;-78
2022/05/10 03:35:42;;;;;;;4.40;3.20;;;11.70;96.90;;;;;;5047363;28;20048;-78
2022/05/10 03:38:07;;;;;;;6.95;4.30;;;11.70;97.00;;;;;;5061110;28;20028;-78
2022/05/10 03:40:33;;;;;;;5.57;4.25;;;11.70;97.00;;;;;;5042368;28;20507;-81
2022/05/10 03:43:00;;;;;;;5.88;3.92;;;11.80;97.00;;;;;;5042982;28;20017;-79
2022/05/10 03:45:25;;;;;;;8.77;3.90;;;11.80;97.00;;;;;;5052382;28;20593;-78
2022/05/10 03:47:52;;;;;;;8.45;4.32;;;11.80;96.90;;;;;;5049788;28;20477;-78
2022/05/10 03:50:20;;;;;;;8.98;4.40;;;11.80;97.00;;;;;;5056785;28;20102;-79
2022/05/10 03:52:46;;;;;;;4.65;3.40;;;11.80;97.00;;;;;;5057582;28;20373;-78
2022/05/10 03:55:14;;;;;;;4.95;3.83;;;11.80;97.10;;;;;;5049458;28;20711;-79
2022/05/10 03:57:40;;;;;;;10.70;4.68;;;11.90;97.20;;;;;;5039837;28;20031;-79
2022/05/10 04:00:09;;;;;;;8.05;4.20;;;11.90;97.20;;;;;;5046259;28;20437;-79
2022/05/10 04:02:35;;;;;;;11.05;3.65;;;12.00;97.30;;;;;;5041786;28;20039;-80
2022/05/10 04:05:00;;;;;;;5.00;4.07;;;12.00;97.20;;;;;;5042679;28;20029;-78
2022/05/10 04:07:26;;;;;;;6.50;3.58;;;12.00;97.30;;;;;;5033872;28;20037;-79
2022/05/10 04:09:51;;;;;;;8.07;4.50;;;12.00;97.20;;;;;;5038004;28;20034;-80
2022/05/10 04:12:17;;;;;;;7.25;4.32;;;12.10;97.10;;;;;;5034133;28;20024;-78
2022/05/10 04:14:42;;;;;;;6.88;4.00;;;12.10;97.00;;;;;;5043874;28;20296;-79
2022/05/10 04:17:08;;;;;;;6.00;4.03;;;12.20;97.10;;;;;;5049142;28;20466;-78
2022/05/10 04:19:33;;;;;;;5.85;4.13;;;12.20;97.10;;;;;;5053673;28;20029;-80
2022/05/10 04:21:59;;;;;;;6.03;4.38;;;12.30;97.10;;;;;;5038887;28;20500;-80
2022/05/10 04:24:24;;;;;;;6.00;4.45;;;12.30;97.10;;;;;;5049290;28;20052;-79
2022/05/10 04:26:50;;;;;;;5.55;4.05;;;12.30;97.10;;;;;;5048924;28;20553;-79
2022/05/10 04:29:16;;;;;;;6.13;4.07;;;12.40;97.00;;;;;;5050829;28;20021;-79
2022/05/10 04:31:42;;;;;;;5.20;3.78;;;12.40;97.00;;;;;;5035670;28;20064;-79
2022/05/10 04:34:07;;;;;;;9.57;3.83;;;12.50;97.00;;;;;;5045554;28;20052;-78
2022/05/10 04:36:34;;;;;;;12.65;4.65;;;12.50;97.00;;;;;;5038611;28;20412;-80
2022/05/10 04:38:59;;;;;;;10.65;4.80;;;12.60;96.90;;;;;;5041509;28;20029;-80
2022/05/10 04:41:30;;;;;;;7.13;4.13;;;12.70;96.90;;;;;;5048428;28;20040;-79
2022/05/10 04:44:07;;;;;;;7.60;4.60;;;12.70;96.90;;;;;;5034574;28;20096;-80
2022/05/10 04:46:35;;;;;;;9.70;4.75;;;12.80;96.80;;;;;;5036881;28;20025;-80
2022/05/10 04:49:02;;;;;;;7.68;4.50;;;12.80;96.70;;;;;;5048689;28;20041;-81
2022/05/10 04:51:28;;;;;;;7.07;4.28;;;12.90;96.70;;;;;;5048162;28;20020;-80
2022/05/10 04:53:54;;;;;;;6.40;4.68;;;12.90;96.50;;;;;;5036757;28;20528;-81
2022/05/10 04:56:20;;;;;;;6.53;4.75;;;13.00;96.50;;;;;;5039375;28;20029;-80
2022/05/10 04:58:46;;;;;;;6.57;3.85;;;13.00;96.40;;;;;;5038610;28;20032;-79
2022/05/10 05:01:15;;;;;;;6.15;3.90;;;13.10;96.50;;;;;;5046886;28;20068;-80
2022/05/10 05:03:46;;;;;;;7.53;4.07;;;13.10;96.40;;;;;;5045119;28;20028;-80
2022/05/10 05:06:12;;;;;;;9.07;3.80;;;13.20;96.20;;;;;;5037620;28;20369;-79
2022/05/10 05:08:38;;;;;;;9.10;3.95;;;13.30;96.20;;;;;;5033090;28;20384;-82
2022/05/10 05:11:04;;;;;;;5.32;3.80;;;13.40;96.20;;;;;;5033320;28;20113;-82
2022/05/10 05:13:29;;;;;;;8.02;4.25;;;13.50;96.20;;;;;;5033531;28;20626;-80
2022/05/10 05:15:55;;;;;;;6.32;4.20;;;13.50;96.20;;;;;;5040250;28;20421;-80
2022/05/10 05:18:21;;;;;;;8.35;4.57;;;13.60;96.10;;;;;;5035270;28;20044;-80
2022/05/10 05:20:48;;;;;;;6.70;4.63;;;13.70;96.00;;;;;;5035792;28;20509;-80
2022/05/10 05:23:16;;;;;;;6.72;4.30;;;13.70;96.00;;;;;;5052204;28;20481;-82
2022/05/10 05:25:41;;;;;;;5.50;4.35;;;13.80;95.90;;;;;;5046321;28;20432;-80
2022/05/10 05:28:08;;;;;;;6.65;5.30;;;13.90;95.90;;;;;;5038811;28;20071;-80
2022/05/10 05:30:34;;;;;;;13.25;5.45;;;14.00;95.90;;;;;;5041284;28;20040;-79
2022/05/10 05:33:00;;;;;;;9.52;4.93;;;14.10;96.00;;;;;;5033320;28;20030;-82
2022/05/10 05:35:26;;;;;;;10.38;4.68;;;14.20;95.90;;;;;;5049381;28;20029;-80
2022/05/10 05:37:54;;;;;;;6.45;5.03;;;14.30;95.90;;;;;;5034980;28;20057;-79
2022/05/10 05:40:19;;;;;;;6.07;4.10;;;14.50;95.90;;;;;;5033055;28;20025;-80
2022/05/10 05:42:46;;;;;;;8.98;4.75;;;14.60;95.70;;;;;;5034621;28;20025;-80
2022/05/10 05:45:13;;;;;;;8.25;4.97;;;14.80;95.60;;;;;;5032418;28;20482;-82
2022/05/10 05:47:40;;;;;;;8.95;5.15;;;14.90;95.50;;;;;;5031275;28;20385;-81
2022/05/10 05:50:07;;;;;;;7.90;4.60;;;15.10;95.20;;;;;;5033354;28;20025;-81
2022/05/10 05:52:33;;;;;;;8.32;4.22;;;15.30;95.00;;;;;;5041007;28;20021;-80
2022/05/10 05:54:59;;;;;;;8.00;4.32;;;15.50;94.80;;;;;;5034030;28;20438;-82
2022/05/10 05:57:24;;;;;;;7.25;3.60;;;15.60;94.60;;;;;;5036660;28;20033;-81
2022/05/10 05:59:55;;;;;;;10.85;4.00;;;15.80;94.10;;;;;;5029748;28;20033;-80
2022/05/10 06:02:22;;;;;;;8.25;3.75;;;16.00;93.50;;;;;;5049316;28;20029;-81
2022/05/10 06:04:48;;;;;;;4.57;3.70;;;16.20;93.20;;;;;;5048959;28;20116;-82
2022/05/10 06:07:14;;;;;;;6.45;3.75;;;16.40;93.30;;;;;;5037449;28;20036;-81
2022/05/10 06:09:41;;;;;;;6.70;3.80;;;16.60;92.90;;;;;;5050133;28;20049;-81
2022/05/10 06:12:09;;;;;;;6.68;3.67;;;16.80;92.40;;;;;;5049473;28;20473;-82
2022/05/10 06:14:35;;;;;;;4.28;3.45;;;16.90;92.20;;;;;;5042616;28;20027;-80
2022/05/10 06:17:01;;;;;;;8.45;3.47;;;17.10;92.00;;;;;;5048381;28;20033;-80
2022/05/10 06:19:30;;;;;;;8.45;3.70;;;17.20;91.90;;;;;;5036552;28;20033;-81
2022/05/10 06:21:55;;;;;;;4.50;3.95;;;17.30;91.50;;;;;;5046164;28;20044;-80
2022/05/10 06:24:25;;;;;;;7.38;3.55;;;17.40;91.40;;;;;;5050850;28;20060;-80
2022/05/10 06:26:51;;;;;;;5.18;3.50;;;17.60;90.90;;;;;;5050238;28;20059;-82
2022/05/10 06:29:17;;;;;;;12.95;3.70;;;17.70;91.00;;;;;;5051019;28;20021;-81
2022/05/10 06:31:44;;;;;;;4.57;3.08;;;17.80;90.80;;;;;;5049273;28;20066;-82
2022/05/10 06:34:10;;;;;;;8.75;3.28;;;18.00;90.80;;;;;;5050713;28;20079;-79
2022/05/10 06:36:37;;;;;;;4.97;3.20;;;18.00;90.50;;;;;;5051451;28;20083;-80
2022/05/10 06:39:03;;;;;;;6.88;3.25;;;18.20;90.50;;;;;;5033964;28;20056;-82
2022/05/10 06:41:31;;;;;;;7.32;3.38;;;18.30;90.30;;;;;;5046306;28;20049;-81
2022/05/10 06:43:57;;;;;;;5.68;3.42;;;18.40;89.70;;;;;;5036504;28;20104;-80
2022/05/10 06:46:23;;;;;;;6.57;3.03;;;18.40;90.00;;;;;;5050794;28;20021;-81
2022/05/10 06:48:49;;;;;;;6.20;3.53;;;18.50;89.80;;;;;;5039267;28;20021;-80
2022/05/10 06:51:16;;;;;;;4.15;2.97;;;18.60;89.10;;;;;;5029944;28;20025;-81
2022/05/10 06:53:42;;;;;;;10.90;3.30;;;18.70;88.90;;;;;;5047638;28;20019;-80
2022/05/10 06:56:09;;;;;;;4.88;2.80;;;18.80;88.80;;;;;;5060241;28;20028;-81
2022/05/10 06:58:35;;;;;;;5.20;3.08;;;18.90;87.60;;;;;;5069366;28;20056;-81
2022/05/10 07:01:01;;;;;;;4.78;2.95;;;19.00;88.20;;;;;;5057498;28;20025;-80
2022/05/10 07:03:31;;;;;;;6.78;3.15;;;19.10;88.10;;;;;;5049246;28;20052;-81
2022/05/10 07:05:58;;;;;;;5.10;2.88;;;19.20;87.10;;;;;;5048629;28;20017;-81
2022/05/10 07:08:24;;;;;;;4.88;2.78;;;19.40;86.20;;;;;;5049578;28;20077;-80
2022/05/10 07:10:49;;;;;;;3.35;2.17;;;19.50;85.20;;;;;;5049320;28;20044;-81
2022/05/10 07:13:20;;;;;;;6.88;2.75;;;19.60;85.40;;;;;;5049692;28;20029;-80
2022/05/10 07:15:46;;;;;;;5.25;2.50;;;19.80;84.90;;;;;;5048318;28;20037;-81
2022/05/10 07:18:12;;;;;;;5.25;2.33;;;19.90;84.40;;;;;;5049375;28;20126;-81
2022/05/10 07:20:39;;;;;;;6.68;3.08;;;20.10;84.50;;;;;;5049538;28;20477;-81
2022/05/10 07:23:06;;;;;;;3.30;2.60;;;20.20;83.20;;;;;;5049219;28;20035;-80
2022/05/10 07:25:32;;;;;;;7.00;2.95;;;20.40;82.30;;;;;;5046511;28;20024;-80
2022/05/10 07:27:58;;;;;;;4.47;2.60;;;20.50;82.50;;;;;;5029883;28;20017;-80
2022/05/10 07:30:25;;;;;;;3.85;2.85;;;20.70;82.90;;;;;;5044900;28;20484;-81
2022/05/10 07:32:51;;;;;;;6.07;2.67;;;20.80;81.80;;;;;;5036853;28;20026;-84
2022/05/10 07:36:23;;;;;;;5.70;3.88;;;21.00;82.10;;;;;;5037557;28;20031;-81
2022/05/10 07:38:04;;;;;;;5.90;2.92;;;21.20;82.10;;;;;;5031799;28;20124;-83
2022/05/10 07:40:30;;;;;;;4.45;3.05;;;21.30;80.30;;;;;;5045574;28;20147;-81
2022/05/10 07:42:55;;;;;;;6.82;2.65;;;21.40;81.60;;;;;;5046241;28;20664;-86
2022/05/10 07:45:21;;;;;;;6.57;2.95;;;21.50;81.60;;;;;;5044626;28;20021;-84
2022/05/10 07:47:46;;;;;;;14.40;2.60;;;21.60;80.00;;;;;;5030005;28;20821;-79
2022/05/10 07:50:12;;;;;;;4.07;2.63;;;21.70;81.40;;;;;;5039183;28;20096;-79
2022/05/10 07:52:40;;;;;;;3.65;2.40;;;21.80;79.40;;;;;;5030542;28;20095;-80
2022/05/10 07:55:06;;;;;;;7.15;3.05;;;21.80;78.40;;;;;;5047018;28;20071;-79
2022/05/10 07:57:31;;;;;;;5.00;2.45;;;21.80;78.10;;;;;;5036434;28;20033;-80
2022/05/10 07:59:56;;;;;;;6.53;3.00;;;21.80;79.40;;;;;;5041907;28;20025;-80
2022/05/10 08:02:22;;;;;;;6.38;2.40;;;21.80;78.30;;;;;;5028802;28;20025;-80
2022/05/10 08:04:47;;;;;;;8.90;2.95;;;21.90;78.00;;;;;;5034049;28;20076;-80
2022/05/10 08:07:13;;;;;;;7.05;2.13;;;22.10;78.60;;;;;;5029293;28;20029;-79
2022/05/10 08:09:38;;;;;;;10.02;3.90;;;22.20;77.20;;;;;;5041506;28;20114;-80
2022/05/10 08:12:04;;;;;;;6.82;3.08;;;22.40;77.40;;;;;;5047423;28;20024;-80
2022/05/10 08:14:30;;;;;;;4.90;2.65;;;22.50;77.00;;;;;;5048314;28;20373;-79
2022/05/10 08:16:56;;;;;;;13.80;3.05;;;22.70;77.40;;;;;;5047911;28;20461;-79
2022/05/10 08:19:21;;;;;;;10.95;2.72;;;22.90;78.40;;;;;;5065858;28;20029;-79
2022/05/10 08:21:47;;;;;;;5.35;2.40;;;23.10;76.30;;;;;;5068029;28;20602;-79
2022/05/10 08:24:12;;;;;;;6.25;2.95;;;23.30;76.20;;;;;;5057465;28;20036;-80
2022/05/10 08:26:39;;;;;;;5.85;2.83;;;23.50;75.80;;;;;;5042906;28;20120;-80
2022/05/10 08:29:04;;;;;;;3.85;2.70;;;23.70;73.30;;;;;;5043277;28;20040;-80
2022/05/10 08:31:30;;;;;;;5.25;2.25;;;23.90;73.30;;;;;;5032117;28;20029;-80
2022/05/10 08:33:56;;;;;;;6.15;2.75;;;24.00;72.50;;;;;;5028762;28;20029;-81
2022/05/10 08:36:22;;;;;;;7.45;2.50;;;24.10;72.00;;;;;;5028439;28;20462;-80
2022/05/10 08:38:47;;;;;;;3.35;2.15;;;24.20;72.20;;;;;;5046805;28;20021;-80
2022/05/10 08:41:34;;;;;;;10.70;2.30;;;24.30;74.10;;;;;;5049907;28;20017;-79
2022/05/10 08:44:17;;;;;;;4.03;2.00;;;24.50;72.10;;;;;;5052327;28;20373;-80
2022/05/10 08:46:48;;;;;;;14.35;2.67;;;24.60;72.10;;;;;;5045373;28;20112;-80
2022/05/10 08:49:39;;;;;;;4.28;2.25;;;24.70;73.50;;;;;;5044474;28;20423;-80
2022/05/10 08:52:06;;;;;;;3.75;1.90;;;24.80;72.20;;;;;;5030539;28;20080;-79
2022/05/10 08:54:37;;;;;;;6.30;2.35;;;24.90;71.80;;;;;;5038472;28;20062;-81
2022/05/10 08:57:40;;;;;;;6.32;2.22;;;25.00;69.50;;;;;;5051559;28;20033;-79
2022/05/10 09:00:09;;;;;;;5.65;2.15;;;25.10;70.60;;;;;;5051771;28;20016;-80
2022/05/10 09:02:45;;;;;;;4.22;2.08;;;25.20;68.90;;;;;;5049733;28;20021;-79
2022/05/10 09:05:41;;;;;;;9.95;2.33;;;25.30;69.70;;;;;;5051171;28;20078;-80
2022/05/10 09:08:23;;;;;;;10.57;1.98;;;25.50;69.30;;;;;;5035423;28;20378;-80
2022/05/10 09:11:12;;;;;;;9.68;2.90;;;25.60;67.10;;;;;;5043679;28;20025;-79
2022/05/10 09:13:38;;;;;;;4.70;2.38;;;25.80;67.10;;;;;;5040931;28;20037;-80
2022/05/10 09:16:09;;;;;;;5.03;1.85;;;25.90;67.60;;;;;;5044011;28;20091;-80
2022/05/10 09:18:46;;;;;;;5.55;1.70;;;26.00;66.70;;;;;;5043042;28;20033;-79
2022/05/10 09:21:27;;;;;;;3.75;2.00;;;26.20;66.80;;;;;;5040702;28;20021;-79
2022/05/10 09:24:18;;;;;;;5.65;2.20;;;26.30;65.00;;;;;;5046826;28;20021;-80
2022/05/10 09:26:50;;;;;;;3.17;1.60;;;26.40;66.90;;;;;;5037082;28;20410;-81
2022/05/10 09:29:31;;;;;;;2.03;1.50;;;26.50;65.90;;;;;;5044911;28;20037;-79
2022/05/10 09:34:53;;;;;;;3.20;1.80;;;26.50;63.00;;;;;;5051324;28;20028;-79
2022/05/10 09:37:30;;;;;;;3.55;1.73;;;26.50;63.80;;;;;;5048657;28;20372;-81
2022/05/10 09:39:55;;;;;;;2.65;1.50;;;26.50;65.10;;;;;;5043882;28;20555;-79
2022/05/10 09:42:42;;;;;;;7.90;1.80;;;26.60;64.60;;;;;;5050490;28;20033;-79
2022/05/10 09:45:12;;;;;;;2.63;1.40;;;26.80;61.90;;;;;;5051607;28;20515;-79
2022/05/10 09:47:39;;;;;;;4.85;1.73;;;26.90;64.40;;;;;;5050577;28;20474;-79
2022/05/10 09:50:19;;;;;;;2.97;1.15;;;27.00;62.20;;;;;;5050876;28;20021;-79
2022/05/10 09:52:46;;;;;;;2.75;1.42;;;27.10;61.30;;;;;;5036196;28;20029;-79
2022/05/10 09:55:32;;;;;;;1.95;1.23;;;27.30;61.70;;;;;;5050800;28;20029;-80
2022/05/10 09:58:12;;;;;;;1.60;1.13;;;27.30;61.30;;;;;;5051404;28;20025;-79
2022/05/10 10:00:40;;;;;;;4.38;1.30;;;27.40;60.30;;;;;;5050597;28;20025;-79
2022/05/10 10:03:06;;;;;;;3.75;1.33;;;27.50;58.60;;;;;;5050312;28;20616;-78
2022/05/10 10:05:33;;;;;;;3.88;1.15;;;27.70;57.80;;;;;;5048358;28;20116;-79
2022/05/10 10:07:59;;;;;;;1.85;1.00;;;27.70;58.10;;;;;;5050514;28;20163;-79
2022/05/10 10:10:37;;;;;;;1.70;1.13;;;27.90;58.30;;;;;;5050855;28;20115;-80
2022/05/10 10:13:33;;;;;;;4.55;1.48;;;28.00;58.50;;;;;;5048933;28;20053;-79
2022/05/10 10:16:00;;;;;;;3.38;1.50;;;28.00;55.80;;;;;;5030926;28;20120;-80
2022/05/10 10:19:16;;;;;;;2.90;1.10;;;28.00;56.30;;;;;;5051138;28;20021;-79
2022/05/10 10:21:51;;;;;;;3.83;1.08;;;28.10;54.60;;;;;;5020107;28;20385;-80
2022/05/10 10:24:44;;;;;;;3.25;1.10;;;28.10;58.70;;;;;;5033333;28;20029;-80
2022/05/10 10:27:34;;;;;;;3.35;1.55;;;28.30;57.40;;;;;;5029921;28;20061;-78
2022/05/10 10:30:40;;;;;;;5.10;2.28;;;28.40;57.90;;;;;;5035762;28;20029;-84
2022/05/10 10:33:12;;;;;;;2.97;1.63;;;28.50;54.30;;;;;;5035978;28;20029;-83
2022/05/10 10:35:48;;;;;;;7.75;2.10;;;28.60;55.00;;;;;;5035649;28;20484;-83
2022/05/10 10:38:26;;;;;;;2.28;1.38;;;28.60;58.60;;;;;;5037917;28;20025;-86
2022/05/10 10:40:58;;;;;;;5.10;1.27;;;28.70;54.70;;;;;;5043958;28;20655;-81
2022/05/10 10:43:33;;;;;;;1.83;1.02;;;28.70;53.40;;;;;;5030877;28;20108;-84
2022/05/10 10:46:17;;;;;;;3.00;1.08;;;28.70;54.10;;;;;;5039661;28;20017;-81
2022/05/10 10:48:47;;;;;;;1.25;0.73;;;28.70;54.50;;;;;;5046053;28;20044;-80
2022/05/10 10:51:15;;;;;;;2.58;1.10;;;28.80;52.30;;;;;;5047861;28;20074;-73
2022/05/10 10:53:43;;;;;;;2.08;1.10;;;29.00;53.80;;;;;;5048551;28;20442;-74
2022/05/10 11:13:42;;;;;;;1.52;0.90;;;29.10;51.30;;;;;;5066065;28;20434;-80
2022/05/10 11:16:30;;;;;;;1.77;1.10;;;30.40;49.80;;;;;;5062641;28;20367;-79
2022/05/10 11:19:29;;;;;;;3.78;1.20;;;30.20;50.20;;;;;;5043424;28;20949;-80
2022/05/10 11:22:01;;;;;;;2.00;1.23;;;30.00;49.50;;;;;;5057775;28;20033;-79
2022/05/10 11:24:39;;;;;;;2.38;1.15;;;29.70;50.10;;;;;;5059608;28;20025;-77
2022/05/10 11:27:43;;;;;;;2.05;1.20;;;29.40;50.30;;;;;;5058704;28;20067;-78
2022/05/10 11:30:27;;;;;;;2.50;1.40;;;29.20;50.50;;;;;;5064140;28;20108;-78
2022/05/10 11:33:14;;;;;;;2.75;1.48;;;29.10;52.00;;;;;;5063398;28;20033;-79
2022/05/10 11:36:01;;;;;;;1.77;0.80;;;29.10;50.50;;;;;;5061137;28;20104;-79
2022/05/10 11:38:39;;;;;;;3.85;1.05;;;29.20;50.00;;;;;;5068316;28;20021;-78
2022/05/10 11:41:36;;;;;;;1.38;0.93;;;29.10;51.20;;;;;;5063319;28;20091;-78
2022/05/10 11:44:20;;;;;;;2.88;1.50;;;29.20;52.80;;;;;;5064439;28;20182;-80
2022/05/10 11:47:11;;;;;;;3.10;0.93;;;29.40;52.90;;;;;;5064154;28;20035;-78
2022/05/10 11:50:00;;;;;;;2.25;1.40;;;29.60;50.70;;;;;;5064840;28;20017;-78
2022/05/10 11:52:44;;;;;;;2.30;1.20;;;29.60;50.40;;;;;;5065316;28;20032;-78
2022/05/10 11:55:44;;;;;;;4.22;1.20;;;29.60;48.00;;;;;;5061927;28;20032;-78
2022/05/10 11:58:10;;;;;;;2.13;0.88;;;29.50;50.90;;;;;;5063595;28;20032;-78
2022/05/10 12:00:35;;;;;;;1.80;1.50;;;29.40;48.80;;;;;;5063223;28;20527;-78
2022/05/10 12:03:04;;;;;;;2.63;1.02;;;29.30;48.60;;;;;;5055729;28;20447;-79
2022/05/10 12:05:39;;;;;;;2.60;1.38;;;29.20;50.30;;;;;;5059524;28;20397;-78
2022/05/10 12:08:27;;;;;;;1.80;1.10;;;29.20;48.70;;;;;;5068358;28;20025;-78
2022/05/10 12:10:53;;;;;;;2.70;1.23;;;29.10;50.40;;;;;;5059305;28;20079;-78
2022/05/10 12:21:19;;;;;;;2.92;1.10;;;29.10;51.90;;;;;;5053899;28;20025;-79
2022/05/10 12:22:05;;;;;;;3.10;0.77;;;29.30;47.10;;;;;;5050512;28;20727;-80
2022/05/10 12:24:33;;;;;;;2.08;0.80;;;29.20;48.10;;;;;;5052078;28;20563;-78
2022/05/10 12:27:21;;;;;;;1.80;1.10;;;29.10;47.10;;;;;;5042586;28;20025;-78
2022/05/10 12:29:46;;;;;;;1.80;0.93;;;28.90;46.20;;;;;;5037471;28;20164;-78
2022/05/10 12:32:18;;;;;;;1.30;0.85;;;28.80;47.90;;;;;;5037879;28;20450;-78
2022/05/10 12:34:49;;;;;;;1.17;1.00;;;28.80;48.00;;;;;;5029048;28;20034;-79
2022/05/10 12:37:35;;;;;;;1.25;1.00;;;28.90;48.40;;;;;;5039521;28;20116;-80
2022/05/10 12:40:10;;;;;;;2.15;1.10;;;29.10;48.00;;;;;;5044799;28;20028;-80
2022/05/10 12:42:43;;;;;;;3.55;1.02;;;29.20;47.20;;;;;;5048015;28;20033;-81
2022/05/10 12:45:34;;;;;;;2.20;0.85;;;29.30;46.80;;;;;;5035903;28;20729;-79
2022/05/10 12:48:08;;;;;;;1.55;0.90;;;29.40;46.60;;;;;;5057558;28;20398;-80
2022/05/10 12:50:52;;;;;;;2.85;0.80;;;29.40;47.40;;;;;;5056460;28;20032;-78
2022/05/10 12:53:26;;;;;;;1.95;1.08;;;29.50;47.40;;;;;;5051264;28;20040;-79
2022/05/10 12:56:06;;;;;;;3.60;1.30;;;29.60;46.40;;;;;;5044414;28;20032;-78
2022/05/10 12:58:36;;;;;;;2.78;1.10;;;29.60;46.80;;;;;;5040558;28;20068;-78
2022/05/10 13:01:06;;;;;;;1.58;1.17;;;29.50;47.10;;;;;;5033166;28;20504;-70
2022/05/10 13:03:35;;;;;;;1.50;0.93;;;29.50;47.10;;;;;;5042229;28;20505;-80
2022/05/10 13:06:19;;;;;;;2.72;1.10;;;29.60;50.10;;;;;;5034469;28;20026;-82
2022/05/10 13:08:54;;;;;;;1.45;0.90;;;29.70;46.70;;;;;;5040824;28;20099;-79
2022/05/10 13:11:23;;;;;;;3.83;0.98;;;29.70;47.30;;;;;;5041856;28;20048;-79
2022/05/10 13:13:52;;;;;;;1.65;1.05;;;29.80;45.80;;;;;;5047180;28;20029;-79
2022/05/10 13:16:20;;;;;;;2.55;0.98;;;29.90;46.60;;;;;;5046968;28;20029;-78
2022/05/10 13:18:47;;;;;;;1.35;0.90;;;30.00;47.30;;;;;;5049885;28;20050;-81
2022/05/10 13:21:22;;;;;;;2.55;0.80;;;30.10;46.20;;;;;;5042593;28;20056;-79
2022/05/10 13:23:47;;;;;;;1.65;0.90;;;30.00;46.50;;;;;;5050498;28;20203;-80
2022/05/10 13:26:15;;;;;;;3.17;1.00;;;30.10;47.20;;;;;;5039589;28;20036;-80
2022/05/10 13:28:50;;;;;;;2.88;1.10;;;30.10;46.70;;;;;;5034286;28;20023;-83
2022/05/10 13:31:19;;;;;;;3.17;1.20;;;30.10;46.60;;;;;;5041425;28;20029;-80
2022/05/10 13:33:44;;;;;;;2.30;1.00;;;30.10;47.90;;;;;;5048848;28;20752;-79
2022/05/10 13:36:13;;;;;;;2.97;1.60;;;30.10;47.30;;;;;;5045214;28;20040;-79